Latest Weather Observations for Clermont Airport

IDQ60801

Issued at 8:05 am EST Thursday 2 October 2014 (issued every 30 minutes, with the page automatically refreshed every 10 minutes)

About weather observations | Map of weather stations | Latest weather observations for QLD | Other Formats
Station Details ID: 035124 Name: CLERMONT AIRPORT Lat: -22.78 Lon: 147.62 Height: 270.27 m
Data from the previous 72 hours. | See also: Recent months at Clermont Airport
Date/Time
EST
Temp
°C
App
Temp
°C
Dew
Point
Rel
Hum
%
Delta-T
°C
Wind Press
QNH
hPa
Press
MSL
hPa
Rain
since 9 am
mm
Dir
 
Spd
km/h
Gust
km/h
Spd
kts
Gust
kts
02/08:00am 21.8 20.7 10.0 47 6.5 SSE 6 7 3 4 1019.3 1017.9 0.0
02/07:30am 20.1 19.4 10.2 53 5.4 S 4 6 2 3 1019.1 1017.7 0.0
02/07:00am 17.8 18.0 10.4 62 4.0 CALM 0 0 0 0 1018.7 1017.3 0.0
02/06:30am 15.1 13.7 9.7 70 2.8 WSW 7 11 4 6 1018.4 1017.0 0.0
02/06:00am 12.7 11.9 9.5 81 1.6 NNE 4 6 2 3 1017.9 1016.6 0.0
02/05:30am 14.1 14.0 9.5 74 2.4 CALM 0 2 0 1 1017.6 1016.3 0.0
02/05:00am 13.7 13.6 9.4 75 2.2 CALM 0 0 0 0 1017.4 1016.1 0.0
02/04:30am 14.5 13.9 8.9 69 2.9 S 2 6 1 3 1016.9 1015.6 0.0
02/04:00am 16.0 14.0 8.5 61 3.9 SE 9 20 5 11 1016.4 1015.0 0.0
02/03:30am 14.7 14.3 9.7 72 2.6 SW 2 4 1 2 1015.7 1014.3 0.0
02/03:00am 15.0 15.1 10.2 73 2.5 CALM 0 0 0 0 1015.4 1014.0 0.0
02/02:30am 14.4 13.9 9.2 71 2.7 WNW 2 4 1 2 1015.2 1013.8 0.0
02/02:00am 13.7 13.6 9.4 75 2.2 CALM 0 0 0 0 1015.4 1014.0 0.0
02/01:30am 14.6 14.5 9.6 72 2.6 CALM 0 0 0 0 1015.7 1014.3 0.0
02/01:00am 14.4 14.2 9.2 71 2.7 CALM 0 4 0 2 1015.9 1014.5 0.0
02/12:30am 14.5 14.3 8.9 69 2.9 CALM 0 0 0 0 1016.1 1014.7 0.0
02/12:00am 15.3 15.3 9.7 69 2.9 W 0 0 0 0 1016.3 1014.9 0.0
 
Date/Time
EST
Temp
°C
App
Temp
°C
Dew
Point
Rel
Hum
%
Delta-T
°C
Wind Press
QNH
hPa
Press
MSL
hPa
Rain
since 9 am
mm
Dir
 
Spd
km/h
Gust
km/h
Spd
kts
Gust
kts
01/11:30pm 15.0 14.5 9.4 69 2.9 WSW 2 2 1 1 1016.5 1015.1 0.0
01/11:00pm 15.7 15.5 8.9 64 3.5 WSW 0 0 0 0 1016.7 1015.4 0.0
01/10:30pm 17.0 16.7 8.7 58 4.3 CALM 0 0 0 0 1016.8 1015.5 0.0
01/10:00pm 16.9 16.4 9.3 61 4.0 WNW 2 6 1 3 1017.0 1015.7 0.0
01/09:30pm 17.4 17.2 9.1 58 4.4 CALM 0 0 0 0 1017.0 1015.7 0.0
01/09:00pm 18.1 18.1 9.7 58 4.5 CALM 0 0 0 0 1017.1 1015.8 0.0
01/08:30pm 18.4 18.2 9.2 55 4.9 CALM 0 0 0 0 1017.0 1015.7 0.0
01/08:00pm 20.0 19.7 8.7 48 6.0 CALM 0 0 0 0 1016.8 1015.5 0.0
01/07:30pm 21.0 20.6 8.3 44 6.7 CALM 0 0 0 0 1016.6 1015.3 0.0
01/07:00pm 21.5 20.4 8.4 43 7.0 S 4 6 2 3 1016.2 1014.8 0.0
01/06:30pm 25.1 24.1 7.3 32 9.5 ESE 2 2 1 1 1015.7 1014.3 0.0
01/06:00pm 29.0 26.9 5.8 23 12.3 SSE 6 7 3 4 1015.5 1014.1 0.0
01/05:30pm 29.9 28.3 4.5 20 13.3 E 2 6 1 3 1015.3 1013.9 0.0
01/05:00pm 30.5 27.4 3.5 18 13.9 SE 9 17 5 9 1015.2 1013.8 0.0
01/04:30pm 30.7 28.1 4.4 19 13.8 SE 7 19 4 10 1015.3 1013.9 0.0
01/04:00pm 30.8 28.3 6.6 22 13.1 SSE 9 15 5 8 1015.3 1013.9 0.0
01/03:30pm 30.6 28.3 5.8 21 13.3 ESE 7 15 4 8 1015.5 1014.1 0.0
01/03:00pm 30.4 28.5 7.6 24 12.6 S 7 17 4 9 1015.8 1014.4 0.0
01/02:30pm 30.3 27.6 5.6 21 13.2 ESE 9 19 5 10 1016.2 1014.8 0.0
01/02:00pm 29.8 27.7 8.2 26 12.0 SE 9 17 5 9 1016.6 1015.3 0.0
01/01:30pm 29.4 28.2 7.9 26 11.8 W 4 13 2 7 1017.0 1015.7 0.0
01/01:00pm 28.8 27.1 8.5 28 11.2 NNE 7 15 4 8 1017.3 1016.0 0.0
01/12:30pm 28.4 27.2 8.1 28 11.2 ESE 4 11 2 6 1017.8 1016.5 0.0
01/12:00pm 27.3 25.8 9.2 32 10.1 NNE 7 17 4 9 1018.6 1017.2 0.0
01/11:30am 26.6 25.6 9.0 33 9.7 S 4 11 2 6 1019.1 1017.7 0.0
01/11:00am 26.4 25.3 10.1 36 9.2 NE 6 11 3 6 1019.7 1018.3 0.0
01/10:30am 25.1 24.0 9.8 38 8.5 N 6 15 3 8 1020.1 1018.8 0.0
01/10:00am 24.1 22.7 9.7 40 7.9 NNE 7 9 4 5 1020.4 1019.1 0.0
01/09:30am 22.9 21.7 9.7 43 7.3 NNE 6 11 3 6 1020.8 1019.9 0.0
01/09:00am 22.1 20.8 9.9 46 6.7 N 7 13 4 7 1020.8 1019.9 0.0
01/08:30am 21.3 21.0 10.2 49 6.1 NW 2 13 1 7 1020.8 1019.9 0.0
01/08:00am 19.4 19.3 10.7 57 4.8 NNE 2 7 1 4 1020.8 1019.9 0.0
01/07:30am 17.2 16.4 9.6 61 4.0 NNE 4 6 2 3 1020.6 1019.7 0.0
01/07:00am 15.0 14.9 9.6 70 2.8 CALM 0 0 0 0 1020.2 1019.3 0.0
01/06:30am 11.6 11.3 8.8 83 1.4 CALM 0 0 0 0 1020.0 1019.1 0.0
01/06:00am 10.1 9.6 7.9 86 1.1 CALM 0 0 0 0 1019.6 1018.7 0.0
01/05:30am 10.5 10.0 7.9 84 1.3 CALM 0 0 0 0 1019.4 1018.5 0.0
01/05:00am 11.9 11.1 8.2 78 1.8 N 2 4 1 2 1019.0 1018.0 0.0
01/04:30am 12.5 10.9 8.2 75 2.2 NNW 6 6 3 3 1018.8 1017.8 0.0
01/04:00am 12.0 10.4 8.1 77 1.9 NW 6 7 3 4 1018.5 1017.5 0.0
01/03:30am 14.4 12.7 7.5 63 3.5 NNW 6 7 3 4 1018.5 1017.5 0.0
01/03:00am 14.3 12.0 7.6 64 3.3 NNW 9 9 5 5 1018.3 1017.3 0.0
01/02:30am 14.9 12.7 7.7 62 3.6 NW 9 11 5 6 1018.3 1017.3 0.0
01/02:00am 15.7 13.8 7.7 59 4.0 WNW 7 9 4 5 1018.5 1017.5 0.0
01/01:30am 16.4 14.6 7.9 57 4.3 NNW 7 11 4 6 1018.8 1017.8 0.0
01/01:00am 16.1 14.4 7.6 57 4.3 NNE 6 7 3 4 1019.0 1018.0 0.0
01/12:30am 16.8 15.4 7.4 54 4.8 NNE 4 6 2 3 1019.2 1018.3 0.0
01/12:00am 16.8 15.6 6.6 51 5.1 ENE 2 6 1 3 1019.4 1018.5 0.0
 
Date/Time
EST
Temp
°C
App
Temp
°C
Dew
Point
Rel
Hum
%
Delta-T
°C
Wind Press
QNH
hPa
Press
MSL
hPa
Rain
since 9 am
mm
Dir
 
Spd
km/h
Gust
km/h
Spd
kts
Gust
kts
30/11:30pm 17.9 16.1 7.0 49 5.5 NNE 6 9 3 5 1019.4 1018.5 0.0
30/11:00pm 18.0 17.1 6.2 46 5.9 CALM 0 2 0 1 1019.4 1018.5 0.0
30/10:30pm 18.7 16.7 7.2 47 5.9 NNE 7 11 4 6 1019.5 1018.6 0.0
30/10:00pm 19.3 17.4 7.4 46 6.1 NNE 7 11 4 6 1019.3 1018.4 0.0
30/09:30pm 18.2 16.5 8.5 53 5.1 NNE 7 9 4 5 1019.2 1018.3 0.0
30/09:00pm 18.6 18.1 8.0 50 5.5 CALM 0 0 0 0 1018.9 1017.9 0.0
30/08:30pm 18.6 18.2 8.3 51 5.4 CALM 0 0 0 0 1018.7 1017.7 0.0
30/08:00pm 21.0 20.2 6.5 39 7.4 CALM 0 0 0 0 1018.5 1017.5 0.0
30/07:30pm 21.6 20.7 5.9 36 8.0 CALM 0 4 0 2 1018.1 1017.1 0.0
30/07:00pm 22.6 21.8 6.4 35 8.4 CALM 0 2 0 1 1017.7 1016.8 0.0
30/06:30pm 24.8 22.7 5.6 29 9.9 E 6 7 3 4 1017.2 1016.3 0.0
30/06:00pm 26.2 24.2 6.3 28 10.5 E 6 11 3 6 1016.6 1015.7 0.0
30/05:30pm 27.3 25.2 6.7 27 11.0 E 7 15 4 8 1016.4 1015.5 0.0
30/05:00pm 28.0 25.8 6.2 25 11.6 E 7 13 4 7 1016.1 1015.2 0.0
30/04:30pm 28.1 25.0 5.6 24 11.8 E 11 22 6 12 1016.0 1015.1 0.0
30/04:00pm 28.6 26.0 6.1 24 12.0 SSE 9 17 5 9 1016.0 1015.1 0.0
30/03:30pm 28.7 25.8 6.7 25 11.8 ENE 11 19 6 10 1016.2 1015.3 0.0
30/03:00pm 28.1 25.8 7.4 27 11.2 E 9 19 5 10 1016.4 1015.5 0.0
30/02:30pm 28.5 26.0 8.2 28 11.2 SE 11 20 6 11 1016.7 1015.8 0.0
30/02:00pm 28.0 25.9 8.3 29 10.8 ESE 9 30 5 16 1017.1 1016.2 0.0
30/01:30pm 27.7 25.7 8.6 30 10.6 SE 9 19 5 10 1017.7 1016.8 0.0
30/01:00pm 27.3 24.7 7.7 29 10.6 SE 11 20 6 11 1018.2 1017.2 0.0
30/12:30pm 26.8 23.4 7.8 30 10.3 SSE 15 24 8 13 1018.8 1017.8 0.0
30/12:00pm 26.7 24.5 9.5 34 9.6 ENE 11 20 6 11 1019.3 1018.4 0.0
30/11:30am 26.2 24.3 9.1 34 9.5 ENE 9 20 5 11 1020.1 1019.2 0.0
30/11:00am 26.0 24.3 9.8 36 9.0 E 9 20 5 11 1020.6 1019.7 0.0
30/10:30am 24.6 23.4 9.7 39 8.3 ESE 6 17 3 9 1021.1 1020.2 0.0
30/10:00am 24.3 22.2 9.8 40 8.0 NNE 11 22 6 12 1021.5 1020.6 0.0
30/09:30am 23.1 21.1 11.5 48 6.6 N 13 26 7 14 1021.7 1020.8 0.0
30/09:00am 21.6 20.0 11.6 53 5.6 N 11 20 6 11 1022.0 1021.0 0.0
30/08:30am 20.4 18.5 11.9 58 4.8 N 13 20 7 11 1022.0 1021.0 0.0
30/08:00am 18.9 17.0 11.7 63 4.0 N 13 22 7 12 1021.7 1020.8 0.0
30/07:30am 17.7 16.6 11.9 69 3.2 NNW 9 15 5 8 1021.5 1020.6 0.0
30/07:00am 15.7 15.0 11.5 76 2.3 WNW 6 7 3 4 1021.4 1020.5 0.0
30/06:30am 12.4 11.9 10.6 89 0.9 WSW 4 6 2 3 1021.0 1020.1 0.0
30/06:00am 11.1 10.2 9.2 88 1.0 WSW 4 6 2 3 1020.7 1019.8 0.0
30/05:30am 11.8 11.3 9.4 85 1.2 WSW 2 4 1 2 1020.1 1019.2 0.0
30/05:00am 12.7 11.9 9.7 82 1.5 WSW 4 4 2 2 1019.7 1018.8 0.0
30/04:30am 13.7 13.7 9.7 77 2.1 CALM 0 0 0 0 1019.3 1018.4 0.0
30/04:00am 15.3 15.5 10.5 73 2.6 CALM 0 0 0 0 1019.0 1018.0 0.0
30/03:30am 16.1 15.4 10.0 67 3.2 NNE 4 6 2 3 1018.8 1017.8 0.0
30/03:00am 15.9 14.9 10.2 69 3.0 NNE 6 9 3 5 1018.6 1017.6 0.0
30/02:30am 16.8 16.2 10.4 66 3.4 NNE 4 7 2 4 1018.7 1017.7 0.0
30/02:00am 17.3 16.6 11.3 68 3.3 NNE 6 11 3 6 1018.7 1017.7 0.0
30/01:30am 17.4 16.2 11.7 69 3.2 NNE 9 13 5 7 1018.8 1017.8 0.0
30/01:00am 17.8 16.7 11.8 68 3.3 NNE 9 17 5 9 1018.9 1017.9 0.0
30/12:30am 17.9 17.2 12.1 69 3.2 NNE 7 11 4 6 1019.2 1018.3 0.0
30/12:00am 18.0 17.4 11.8 67 3.4 NNE 6 11 3 6 1019.4 1018.5 0.0
 
Date/Time
EST
Temp
°C
App
Temp
°C
Dew
Point
Rel
Hum
%
Delta-T
°C
Wind Press
QNH
hPa
Press
MSL
hPa
Rain
since 9 am
mm
Dir
 
Spd
km/h
Gust
km/h
Spd
kts
Gust
kts
29/11:30pm 18.4 17.5 11.5 64 3.8 NNE 7 11 4 6 1019.6 1018.7 0.0
29/11:00pm 18.7 18.0 11.3 62 4.1 NE 6 11 3 6 1019.7 1018.8 0.0
29/10:30pm 19.2 19.4 10.5 57 4.8 CALM 0 4 0 2 1019.6 1018.7 0.0
29/10:00pm 19.9 18.9 10.3 54 5.2 NE 6 9 3 5 1019.6 1018.7 0.0
29/09:30pm 20.3 20.2 9.5 50 5.8 CALM 0 0 0 0 1019.4 1018.5 0.0
29/09:00pm 21.5 20.6 9.1 45 6.7 ESE 4 7 2 4 1019.2 1018.3 0.0
29/08:30pm 22.0 21.1 9.2 44 6.9 E 4 7 2 4 1018.9 1017.9 0.0
29/08:00pm 22.1 21.6 9.3 44 6.9 ESE 2 4 1 2 1018.7 1017.7 0.0
29/07:30pm 23.1 22.7 9.8 43 7.3 SE 2 4 1 2 1018.2 1017.2 0.0
29/07:00pm 23.9 23.4 9.5 40 7.9 E 2 7 1 4 1017.7 1016.8 0.0
29/06:30pm 25.0 24.0 8.9 36 8.8 ESE 4 7 2 4 1017.2 1016.3 0.0
29/06:00pm 26.1 24.7 9.0 34 9.4 E 6 13 3 7 1016.8 1015.9 0.0
29/05:30pm 27.3 25.3 8.7 31 10.3 E 9 17 5 9 1016.5 1015.6 0.0
29/05:00pm 28.0 26.0 8.8 30 10.7 E 9 15 5 8 1016.2 1015.3 0.0
29/04:30pm 28.5 26.3 9.2 30 10.8 ENE 11 22 6 12 1016.1 1015.2 0.0
29/04:00pm 28.4 26.2 9.2 30 10.7 E 11 22 6 12 1015.9 1014.9 0.0
29/03:30pm 28.5 26.6 9.2 30 10.8 ENE 9 15 5 8 1015.9 1014.9 0.0
29/03:00pm 28.5 26.3 9.2 30 10.8 ESE 11 24 6 13 1016.1 1015.2 0.0
29/02:30pm 28.1 26.5 10.3 33 10.1 SE 9 19 5 10 1016.4 1015.5 0.0
29/02:00pm 27.9 25.7 9.2 31 10.4 SE 11 19 6 10 1016.8 1015.9 0.0
29/01:30pm 28.2 25.7 10.9 34 10.0 ESE 15 30 8 16 1017.2 1016.3 0.0
29/01:00pm 27.3 26.2 10.5 35 9.5 ESE 7 15 4 8 1017.6 1016.7 0.0
29/12:30pm 26.9 25.0 10.6 36 9.3 ESE 11 20 6 11 1018.3 1017.3 0.0
29/12:00pm 26.5 24.7 11.0 38 8.8 E 11 19 6 10 1018.8 1017.8 0.0
29/11:30am 25.9 24.9 12.4 43 7.9 ENE 9 20 5 11 1019.3 1018.4 0.0
29/11:00am 25.2 24.0 12.8 46 7.2 E 11 20 6 11 1019.7 1018.8 0.0
29/10:30am 24.4 23.7 13.3 50 6.5 E 9 20 5 11 1020.3 1019.4 0.0
29/10:00am 23.5 23.3 13.7 54 5.8 E 7 17 4 9 1020.6 1019.7 0.0
29/09:30am 22.7 22.8 14.0 58 5.1 ESE 6 11 3 6 1020.9 1020.0 0.0
29/09:00am 21.7 21.8 14.4 63 4.3 E 7 15 4 8 1021.0 1020.1 0.0
29/08:30am 20.7 20.5 14.8 69 3.5 NE 9 15 5 8 1020.9 1020.0 0.0

Other Formats:

Comma delimited format used in spreadsheet applications
http://www.bom.gov.au/fwo/IDQ60801/IDQ60801.94395.axf

JavaScript Object Notation format (JSON) in row-major order
http://www.bom.gov.au/fwo/IDQ60801/IDQ60801.94395.json